sensor_id;sensor_type;location;lat;lon;timestamp;P1;durP1;ratioP1;P2;durP2;ratioP2
45039;SDS011;30778;53.574;7.770;2023-02-01T00:01:10;20.65;;;2.65;;
45039;SDS011;30778;53.574;7.770;2023-02-01T00:03:35;22.45;;;3.75;;
45039;SDS011;30778;53.574;7.770;2023-02-01T00:06:01;14.52;;;3.28;;
45039;SDS011;30778;53.574;7.770;2023-02-01T00:08:27;24.98;;;2.97;;
45039;SDS011;30778;53.574;7.770;2023-02-01T00:10:59;30.52;;;3.25;;
45039;SDS011;30778;53.574;7.770;2023-02-01T00:13:29;18.38;;;3.65;;
45039;SDS011;30778;53.574;7.770;2023-02-01T00:16:02;24.30;;;4.03;;
45039;SDS011;30778;53.574;7.770;2023-02-01T00:18:34;17.17;;;2.45;;
45039;SDS011;30778;53.574;7.770;2023-02-01T00:21:01;26.05;;;3.50;;
45039;SDS011;30778;53.574;7.770;2023-02-01T00:23:26;28.20;;;3.50;;
45039;SDS011;30778;53.574;7.770;2023-02-01T00:25:52;29.83;;;3.97;;
45039;SDS011;30778;53.574;7.770;2023-02-01T00:28:18;11.45;;;1.98;;
45039;SDS011;30778;53.574;7.770;2023-02-01T00:30:44;25.67;;;3.53;;
45039;SDS011;30778;53.574;7.770;2023-02-01T00:33:09;34.10;;;3.58;;
45039;SDS011;30778;53.574;7.770;2023-02-01T00:35:35;26.73;;;3.05;;
45039;SDS011;30778;53.574;7.770;2023-02-01T00:38:00;37.00;;;3.88;;
45039;SDS011;30778;53.574;7.770;2023-02-01T00:40:26;30.30;;;3.65;;
45039;SDS011;30778;53.574;7.770;2023-02-01T00:42:52;16.13;;;2.70;;
45039;SDS011;30778;53.574;7.770;2023-02-01T00:45:17;33.47;;;4.03;;
45039;SDS011;30778;53.574;7.770;2023-02-01T00:47:43;26.23;;;2.70;;
45039;SDS011;30778;53.574;7.770;2023-02-01T00:50:09;25.80;;;3.00;;
45039;SDS011;30778;53.574;7.770;2023-02-01T00:52:35;22.45;;;2.95;;
45039;SDS011;30778;53.574;7.770;2023-02-01T00:55:00;25.08;;;3.92;;
45039;SDS011;30778;53.574;7.770;2023-02-01T00:57:26;28.55;;;3.88;;
45039;SDS011;30778;53.574;7.770;2023-02-01T00:59:51;24.85;;;3.38;;
45039;SDS011;30778;53.574;7.770;2023-02-01T01:02:17;23.30;;;4.63;;
45039;SDS011;30778;53.574;7.770;2023-02-01T01:04:42;28.95;;;3.15;;
45039;SDS011;30778;53.574;7.770;2023-02-01T01:07:08;16.45;;;4.43;;
45039;SDS011;30778;53.574;7.770;2023-02-01T01:09:33;35.60;;;4.03;;
45039;SDS011;30778;53.574;7.770;2023-02-01T01:11:59;26.70;;;3.67;;
45039;SDS011;30778;53.574;7.770;2023-02-01T01:14:29;21.15;;;2.67;;
45039;SDS011;30778;53.574;7.770;2023-02-01T01:16:55;27.85;;;4.10;;
45039;SDS011;30778;53.574;7.770;2023-02-01T01:19:20;38.10;;;4.07;;
45039;SDS011;30778;53.574;7.770;2023-02-01T01:21:46;41.20;;;4.03;;
45039;SDS011;30778;53.574;7.770;2023-02-01T01:24:12;45.80;;;5.80;;
45039;SDS011;30778;53.574;7.770;2023-02-01T01:26:37;29.08;;;4.80;;
45039;SDS011;30778;53.574;7.770;2023-02-01T01:29:03;22.23;;;3.42;;
45039;SDS011;30778;53.574;7.770;2023-02-01T01:31:28;27.95;;;3.92;;
45039;SDS011;30778;53.574;7.770;2023-02-01T01:33:56;29.02;;;7.03;;
45039;SDS011;30778;53.574;7.770;2023-02-01T01:36:23;23.30;;;3.40;;
45039;SDS011;30778;53.574;7.770;2023-02-01T01:38:50;26.90;;;3.80;;
45039;SDS011;30778;53.574;7.770;2023-02-01T01:41:18;31.40;;;3.55;;
45039;SDS011;30778;53.574;7.770;2023-02-01T01:43:49;19.42;;;3.53;;
45039;SDS011;30778;53.574;7.770;2023-02-01T01:46:19;23.80;;;4.68;;
45039;SDS011;30778;53.574;7.770;2023-02-01T01:48:48;24.42;;;3.03;;
45039;SDS011;30778;53.574;7.770;2023-02-01T01:51:17;18.20;;;3.53;;
45039;SDS011;30778;53.574;7.770;2023-02-01T01:53:45;29.15;;;3.17;;
45039;SDS011;30778;53.574;7.770;2023-02-01T01:56:20;37.67;;;4.63;;
45039;SDS011;30778;53.574;7.770;2023-02-01T01:58:46;18.48;;;3.35;;
45039;SDS011;30778;53.574;7.770;2023-02-01T02:01:12;21.45;;;2.03;;
45039;SDS011;30778;53.574;7.770;2023-02-01T02:03:38;19.10;;;2.83;;
45039;SDS011;30778;53.574;7.770;2023-02-01T02:08:56;23.98;;;2.38;;
45039;SDS011;30778;53.574;7.770;2023-02-01T02:11:21;19.42;;;3.35;;
45039;SDS011;30778;53.574;7.770;2023-02-01T02:13:51;24.15;;;2.15;;
45039;SDS011;30778;53.574;7.770;2023-02-01T02:28:14;25.40;;;2.40;;
45039;SDS011;30778;53.574;7.770;2023-02-01T02:30:52;19.58;;;2.13;;
45039;SDS011;30778;53.574;7.770;2023-02-01T02:36:07;21.25;;;1.98;;
45039;SDS011;30778;53.574;7.770;2023-02-01T02:38:52;22.77;;;2.00;;
45039;SDS011;30778;53.574;7.770;2023-02-01T02:41:35;16.85;;;2.83;;
45039;SDS011;30778;53.574;7.770;2023-02-01T02:44:36;18.52;;;1.95;;
45039;SDS011;30778;53.574;7.770;2023-02-01T02:50:11;20.90;;;3.13;;
45039;SDS011;30778;53.574;7.770;2023-02-01T02:53:07;9.95;;;2.13;;
45039;SDS011;30778;53.574;7.770;2023-02-01T02:55:57;26.48;;;3.20;;
45039;SDS011;30778;53.574;7.770;2023-02-01T02:58:43;18.77;;;1.77;;
45039;SDS011;30778;53.574;7.770;2023-02-01T03:01:29;26.73;;;3.65;;
45039;SDS011;30778;53.574;7.770;2023-02-01T03:04:14;21.00;;;2.08;;
45039;SDS011;30778;53.574;7.770;2023-02-01T03:06:44;25.08;;;2.45;;
45039;SDS011;30778;53.574;7.770;2023-02-01T03:09:13;18.20;;;3.08;;
45039;SDS011;30778;53.574;7.770;2023-02-01T03:11:46;20.48;;;4.03;;
45039;SDS011;30778;53.574;7.770;2023-02-01T03:14:34;37.33;;;6.65;;
45039;SDS011;30778;53.574;7.770;2023-02-01T03:17:04;23.70;;;2.15;;
45039;SDS011;30778;53.574;7.770;2023-02-01T03:19:45;18.02;;;1.90;;
45039;SDS011;30778;53.574;7.770;2023-02-01T03:22:15;17.23;;;2.08;;
45039;SDS011;30778;53.574;7.770;2023-02-01T03:24:53;17.38;;;1.85;;
45039;SDS011;30778;53.574;7.770;2023-02-01T03:27:22;14.77;;;1.52;;
45039;SDS011;30778;53.574;7.770;2023-02-01T03:32:46;13.93;;;1.95;;
45039;SDS011;30778;53.574;7.770;2023-02-01T03:38:12;13.77;;;1.52;;
45039;SDS011;30778;53.574;7.770;2023-02-01T03:40:47;25.40;;;1.83;;
45039;SDS011;30778;53.574;7.770;2023-02-01T03:43:17;17.52;;;2.13;;
45039;SDS011;30778;53.574;7.770;2023-02-01T03:45:47;24.58;;;3.08;;
45039;SDS011;30778;53.574;7.770;2023-02-01T03:48:17;21.15;;;3.85;;
45039;SDS011;30778;53.574;7.770;2023-02-01T03:50:44;32.45;;;3.25;;
45039;SDS011;30778;53.574;7.770;2023-02-01T03:53:14;21.52;;;2.55;;
45039;SDS011;30778;53.574;7.770;2023-02-01T03:55:43;22.15;;;3.75;;
45039;SDS011;30778;53.574;7.770;2023-02-01T03:58:13;24.80;;;2.85;;
45039;SDS011;30778;53.574;7.770;2023-02-01T04:00:40;16.75;;;2.75;;
45039;SDS011;30778;53.574;7.770;2023-02-01T04:03:09;14.65;;;2.45;;
45039;SDS011;30778;53.574;7.770;2023-02-01T04:05:34;25.65;;;3.63;;
45039;SDS011;30778;53.574;7.770;2023-02-01T04:08:03;26.15;;;4.57;;
45039;SDS011;30778;53.574;7.770;2023-02-01T04:10:30;17.83;;;3.00;;
45039;SDS011;30778;53.574;7.770;2023-02-01T04:12:55;31.58;;;3.05;;
45039;SDS011;30778;53.574;7.770;2023-02-01T04:15:21;23.05;;;2.58;;
45039;SDS011;30778;53.574;7.770;2023-02-01T04:17:46;23.08;;;3.72;;
45039;SDS011;30778;53.574;7.770;2023-02-01T04:20:12;16.52;;;3.55;;
45039;SDS011;30778;53.574;7.770;2023-02-01T04:22:37;31.65;;;3.50;;
45039;SDS011;30778;53.574;7.770;2023-02-01T04:25:03;22.05;;;2.53;;
45039;SDS011;30778;53.574;7.770;2023-02-01T04:27:30;26.00;;;2.17;;
45039;SDS011;30778;53.574;7.770;2023-02-01T04:29:56;9.60;;;2.35;;
45039;SDS011;30778;53.574;7.770;2023-02-01T04:32:22;32.70;;;3.03;;
45039;SDS011;30778;53.574;7.770;2023-02-01T04:34:47;18.52;;;2.50;;
45039;SDS011;30778;53.574;7.770;2023-02-01T04:37:12;21.77;;;2.63;;
45039;SDS011;30778;53.574;7.770;2023-02-01T04:39:38;24.67;;;2.70;;
45039;SDS011;30778;53.574;7.770;2023-02-01T04:42:04;28.40;;;3.60;;
45039;SDS011;30778;53.574;7.770;2023-02-01T04:44:29;22.30;;;3.38;;
45039;SDS011;30778;53.574;7.770;2023-02-01T04:46:54;23.17;;;3.50;;
45039;SDS011;30778;53.574;7.770;2023-02-01T04:49:20;21.65;;;3.05;;
45039;SDS011;30778;53.574;7.770;2023-02-01T04:51:46;16.30;;;1.52;;
45039;SDS011;30778;53.574;7.770;2023-02-01T04:54:13;17.23;;;1.80;;
45039;SDS011;30778;53.574;7.770;2023-02-01T04:56:39;16.83;;;1.70;;
45039;SDS011;30778;53.574;7.770;2023-02-01T04:59:05;14.55;;;1.95;;
45039;SDS011;30778;53.574;7.770;2023-02-01T05:01:31;19.52;;;1.42;;
45039;SDS011;30778;53.574;7.770;2023-02-01T05:03:57;16.48;;;1.63;;
45039;SDS011;30778;53.574;7.770;2023-02-01T05:06:22;15.27;;;2.67;;
45039;SDS011;30778;53.574;7.770;2023-02-01T05:08:48;8.98;;;0.95;;
45039;SDS011;30778;53.574;7.770;2023-02-01T05:11:14;14.30;;;2.30;;
45039;SDS011;30778;53.574;7.770;2023-02-01T05:13:58;13.75;;;1.05;;
45039;SDS011;30778;53.574;7.770;2023-02-01T05:16:25;21.40;;;1.88;;
45039;SDS011;30778;53.574;7.770;2023-02-01T05:18:51;20.58;;;3.08;;
45039;SDS011;30778;53.574;7.770;2023-02-01T05:21:17;19.48;;;1.83;;
45039;SDS011;30778;53.574;7.770;2023-02-01T05:23:42;17.55;;;1.73;;
45039;SDS011;30778;53.574;7.770;2023-02-01T05:26:27;19.42;;;2.85;;
45039;SDS011;30778;53.574;7.770;2023-02-01T05:28:53;17.88;;;2.17;;
45039;SDS011;30778;53.574;7.770;2023-02-01T05:31:18;17.60;;;1.77;;
45039;SDS011;30778;53.574;7.770;2023-02-01T05:33:44;14.73;;;2.50;;
45039;SDS011;30778;53.574;7.770;2023-02-01T05:36:10;25.45;;;1.90;;
45039;SDS011;30778;53.574;7.770;2023-02-01T05:38:35;26.58;;;3.00;;
45039;SDS011;30778;53.574;7.770;2023-02-01T05:41:01;10.48;;;1.73;;
45039;SDS011;30778;53.574;7.770;2023-02-01T05:43:26;20.90;;;2.10;;
45039;SDS011;30778;53.574;7.770;2023-02-01T05:45:52;29.90;;;3.03;;
45039;SDS011;30778;53.574;7.770;2023-02-01T05:48:18;24.13;;;2.53;;
45039;SDS011;30778;53.574;7.770;2023-02-01T05:50:43;25.67;;;2.38;;
45039;SDS011;30778;53.574;7.770;2023-02-01T05:53:09;15.27;;;2.50;;
45039;SDS011;30778;53.574;7.770;2023-02-01T05:55:36;23.65;;;2.95;;
45039;SDS011;30778;53.574;7.770;2023-02-01T05:58:01;26.90;;;2.55;;
45039;SDS011;30778;53.574;7.770;2023-02-01T06:00:27;17.00;;;2.10;;
45039;SDS011;30778;53.574;7.770;2023-02-01T06:02:52;16.73;;;1.92;;
45039;SDS011;30778;53.574;7.770;2023-02-01T06:05:18;21.92;;;2.13;;
45039;SDS011;30778;53.574;7.770;2023-02-01T06:07:43;21.77;;;3.15;;
45039;SDS011;30778;53.574;7.770;2023-02-01T06:10:09;13.35;;;2.03;;
45039;SDS011;30778;53.574;7.770;2023-02-01T06:12:35;3.22;;;1.00;;
45039;SDS011;30778;53.574;7.770;2023-02-01T06:15:00;15.00;;;2.17;;
45039;SDS011;30778;53.574;7.770;2023-02-01T06:17:26;18.33;;;2.58;;
45039;SDS011;30778;53.574;7.770;2023-02-01T06:19:51;12.70;;;2.60;;
45039;SDS011;30778;53.574;7.770;2023-02-01T06:22:17;16.63;;;2.03;;
45039;SDS011;30778;53.574;7.770;2023-02-01T06:24:42;20.73;;;3.13;;
45039;SDS011;30778;53.574;7.770;2023-02-01T06:27:08;16.50;;;2.85;;
45039;SDS011;30778;53.574;7.770;2023-02-01T06:29:38;40.47;;;2.72;;
45039;SDS011;30778;53.574;7.770;2023-02-01T06:32:03;12.10;;;3.00;;
45039;SDS011;30778;53.574;7.770;2023-02-01T06:34:29;18.15;;;2.42;;
45039;SDS011;30778;53.574;7.770;2023-02-01T06:36:54;16.50;;;2.45;;
45039;SDS011;30778;53.574;7.770;2023-02-01T06:39:20;16.58;;;1.95;;
45039;SDS011;30778;53.574;7.770;2023-02-01T06:41:48;17.48;;;2.20;;
45039;SDS011;30778;53.574;7.770;2023-02-01T06:44:15;18.15;;;2.00;;
45039;SDS011;30778;53.574;7.770;2023-02-01T06:46:41;17.90;;;2.58;;
45039;SDS011;30778;53.574;7.770;2023-02-01T06:49:07;20.15;;;2.20;;
45039;SDS011;30778;53.574;7.770;2023-02-01T06:51:33;19.33;;;2.95;;
45039;SDS011;30778;53.574;7.770;2023-02-01T06:53:59;14.32;;;1.90;;
45039;SDS011;30778;53.574;7.770;2023-02-01T06:56:24;17.63;;;2.40;;
45039;SDS011;30778;53.574;7.770;2023-02-01T06:58:51;16.80;;;2.60;;
45039;SDS011;30778;53.574;7.770;2023-02-01T07:01:16;13.95;;;1.90;;
45039;SDS011;30778;53.574;7.770;2023-02-01T07:03:42;11.98;;;2.20;;
45039;SDS011;30778;53.574;7.770;2023-02-01T07:06:08;12.07;;;2.03;;
45039;SDS011;30778;53.574;7.770;2023-02-01T07:08:35;19.75;;;1.80;;
45039;SDS011;30778;53.574;7.770;2023-02-01T07:11:11;21.48;;;3.40;;
45039;SDS011;30778;53.574;7.770;2023-02-01T07:13:39;7.15;;;0.80;;
45039;SDS011;30778;53.574;7.770;2023-02-01T07:16:05;20.63;;;3.25;;
45039;SDS011;30778;53.574;7.770;2023-02-01T07:18:34;14.90;;;2.45;;
45039;SDS011;30778;53.574;7.770;2023-02-01T07:20:59;22.83;;;2.50;;
45039;SDS011;30778;53.574;7.770;2023-02-01T07:23:25;15.13;;;2.22;;
45039;SDS011;30778;53.574;7.770;2023-02-01T07:25:55;13.10;;;1.88;;
45039;SDS011;30778;53.574;7.770;2023-02-01T07:28:22;7.78;;;0.98;;
45039;SDS011;30778;53.574;7.770;2023-02-01T07:30:47;20.88;;;2.13;;
45039;SDS011;30778;53.574;7.770;2023-02-01T07:33:19;9.45;;;1.73;;
45039;SDS011;30778;53.574;7.770;2023-02-01T07:35:46;26.00;;;2.78;;
45039;SDS011;30778;53.574;7.770;2023-02-01T07:38:13;21.95;;;3.03;;
45039;SDS011;30778;53.574;7.770;2023-02-01T07:40:39;11.77;;;0.68;;
45039;SDS011;30778;53.574;7.770;2023-02-01T07:43:04;19.90;;;1.30;;
45039;SDS011;30778;53.574;7.770;2023-02-01T07:45:31;15.23;;;1.13;;
45039;SDS011;30778;53.574;7.770;2023-02-01T07:47:57;12.95;;;1.20;;
45039;SDS011;30778;53.574;7.770;2023-02-01T07:50:22;16.95;;;1.98;;
45039;SDS011;30778;53.574;7.770;2023-02-01T07:52:48;14.25;;;1.58;;
45039;SDS011;30778;53.574;7.770;2023-02-01T07:55:13;21.65;;;1.85;;
45039;SDS011;30778;53.574;7.770;2023-02-01T07:57:39;21.45;;;2.50;;
45039;SDS011;30778;53.574;7.770;2023-02-01T08:00:04;20.60;;;2.03;;
45039;SDS011;30778;53.574;7.770;2023-02-01T08:02:49;8.02;;;1.95;;
45039;SDS011;30778;53.574;7.770;2023-02-01T08:05:15;9.00;;;0.70;;
45039;SDS011;30778;53.574;7.770;2023-02-01T08:07:40;16.05;;;1.45;;
45039;SDS011;30778;53.574;7.770;2023-02-01T08:10:06;7.60;;;1.65;;
45039;SDS011;30778;53.574;7.770;2023-02-01T08:12:36;9.38;;;1.15;;
45039;SDS011;30778;53.574;7.770;2023-02-01T08:15:02;10.88;;;1.85;;
45039;SDS011;30778;53.574;7.770;2023-02-01T08:17:29;15.25;;;2.00;;
45039;SDS011;30778;53.574;7.770;2023-02-01T08:19:54;13.95;;;2.42;;
45039;SDS011;30778;53.574;7.770;2023-02-01T08:22:20;19.52;;;1.50;;
45039;SDS011;30778;53.574;7.770;2023-02-01T08:24:49;10.23;;;2.53;;
45039;SDS011;30778;53.574;7.770;2023-02-01T08:27:14;20.10;;;3.20;;
45039;SDS011;30778;53.574;7.770;2023-02-01T08:29:39;13.98;;;1.95;;
45039;SDS011;30778;53.574;7.770;2023-02-01T08:32:05;27.67;;;2.83;;
45039;SDS011;30778;53.574;7.770;2023-02-01T08:34:30;19.25;;;1.45;;
45039;SDS011;30778;53.574;7.770;2023-02-01T08:36:56;16.67;;;2.92;;
45039;SDS011;30778;53.574;7.770;2023-02-01T08:39:26;22.63;;;1.83;;
45039;SDS011;30778;53.574;7.770;2023-02-01T08:41:52;16.40;;;1.35;;
45039;SDS011;30778;53.574;7.770;2023-02-01T08:44:35;19.67;;;1.75;;
45039;SDS011;30778;53.574;7.770;2023-02-01T08:47:02;10.43;;;1.75;;
45039;SDS011;30778;53.574;7.770;2023-02-01T08:49:28;16.42;;;2.17;;
45039;SDS011;30778;53.574;7.770;2023-02-01T08:51:53;19.52;;;2.45;;
45039;SDS011;30778;53.574;7.770;2023-02-01T08:54:20;16.27;;;2.28;;
45039;SDS011;30778;53.574;7.770;2023-02-01T08:56:46;21.15;;;2.80;;
45039;SDS011;30778;53.574;7.770;2023-02-01T08:59:12;13.63;;;1.98;;
45039;SDS011;30778;53.574;7.770;2023-02-01T09:01:37;17.25;;;2.00;;
45039;SDS011;30778;53.574;7.770;2023-02-01T09:04:03;19.85;;;2.38;;
45039;SDS011;30778;53.574;7.770;2023-02-01T09:06:29;16.88;;;1.88;;
45039;SDS011;30778;53.574;7.770;2023-02-01T09:08:55;9.60;;;1.73;;
45039;SDS011;30778;53.574;7.770;2023-02-01T09:11:21;17.42;;;1.70;;
45039;SDS011;30778;53.574;7.770;2023-02-01T09:13:47;21.88;;;2.67;;
45039;SDS011;30778;53.574;7.770;2023-02-01T09:16:13;16.67;;;2.03;;
45039;SDS011;30778;53.574;7.770;2023-02-01T09:18:39;17.58;;;1.73;;
45039;SDS011;30778;53.574;7.770;2023-02-01T09:21:05;17.10;;;2.28;;
45039;SDS011;30778;53.574;7.770;2023-02-01T09:23:32;15.90;;;1.88;;
45039;SDS011;30778;53.574;7.770;2023-02-01T09:25:59;14.07;;;2.58;;
45039;SDS011;30778;53.574;7.770;2023-02-01T09:28:25;16.83;;;1.48;;
45039;SDS011;30778;53.574;7.770;2023-02-01T09:30:55;31.25;;;1.90;;
45039;SDS011;30778;53.574;7.770;2023-02-01T09:33:24;15.73;;;2.58;;
45039;SDS011;30778;53.574;7.770;2023-02-01T09:35:55;10.48;;;1.60;;
45039;SDS011;30778;53.574;7.770;2023-02-01T09:38:24;21.13;;;4.07;;
45039;SDS011;30778;53.574;7.770;2023-02-01T09:40:54;11.70;;;1.23;;
45039;SDS011;30778;53.574;7.770;2023-02-01T09:43:35;26.48;;;3.28;;
45039;SDS011;30778;53.574;7.770;2023-02-01T09:48:55;22.17;;;1.90;;
45039;SDS011;30778;53.574;7.770;2023-02-01T09:51:24;16.52;;;2.40;;
45039;SDS011;30778;53.574;7.770;2023-02-01T09:54:16;18.00;;;3.00;;
45039;SDS011;30778;53.574;7.770;2023-02-01T09:56:58;22.85;;;3.47;;
45039;SDS011;30778;53.574;7.770;2023-02-01T09:59:46;22.58;;;2.22;;
45039;SDS011;30778;53.574;7.770;2023-02-01T10:02:21;25.15;;;2.00;;
45039;SDS011;30778;53.574;7.770;2023-02-01T10:04:49;21.85;;;2.92;;
45039;SDS011;30778;53.574;7.770;2023-02-01T10:15:24;14.40;;;2.28;;
45039;SDS011;30778;53.574;7.770;2023-02-01T10:18:12;24.65;;;3.03;;
45039;SDS011;30778;53.574;7.770;2023-02-01T10:26:18;24.17;;;3.13;;
45039;SDS011;30778;53.574;7.770;2023-02-01T10:28:47;16.98;;;2.00;;
45039;SDS011;30778;53.574;7.770;2023-02-01T10:31:15;13.23;;;1.25;;
45039;SDS011;30778;53.574;7.770;2023-02-01T10:33:42;16.45;;;2.25;;
45039;SDS011;30778;53.574;7.770;2023-02-01T10:36:14;22.83;;;2.22;;
45039;SDS011;30778;53.574;7.770;2023-02-01T10:38:44;9.63;;;1.38;;
45039;SDS011;30778;53.574;7.770;2023-02-01T10:41:17;15.38;;;2.03;;
45039;SDS011;30778;53.574;7.770;2023-02-01T10:43:48;23.02;;;2.72;;
45039;SDS011;30778;53.574;7.770;2023-02-01T10:46:17;7.43;;;0.90;;
45039;SDS011;30778;53.574;7.770;2023-02-01T10:48:43;5.75;;;0.30;;
45039;SDS011;30778;53.574;7.770;2023-02-01T10:51:14;4.15;;;0.10;;
45039;SDS011;30778;53.574;7.770;2023-02-01T10:54:03;0.85;;;0.10;;
45039;SDS011;30778;53.574;7.770;2023-02-01T10:59:03;3.78;;;0.52;;
45039;SDS011;30778;53.574;7.770;2023-02-01T11:03:59;3.67;;;0.30;;
45039;SDS011;30778;53.574;7.770;2023-02-01T11:06:27;4.90;;;0.30;;
45039;SDS011;30778;53.574;7.770;2023-02-01T11:08:56;7.38;;;0.40;;
45039;SDS011;30778;53.574;7.770;2023-02-01T11:11:24;2.45;;;0.10;;
45039;SDS011;30778;53.574;7.770;2023-02-01T11:13:52;3.17;;;0.10;;
45039;SDS011;30778;53.574;7.770;2023-02-01T11:16:20;0.40;;;0.00;;
45039;SDS011;30778;53.574;7.770;2023-02-01T11:18:46;1.65;;;0.22;;
45039;SDS011;30778;53.574;7.770;2023-02-01T11:21:19;5.65;;;0.20;;
45039;SDS011;30778;53.574;7.770;2023-02-01T11:23:46;2.30;;;0.25;;
45039;SDS011;30778;53.574;7.770;2023-02-01T11:26:19;1.00;;;0.08;;
45039;SDS011;30778;53.574;7.770;2023-02-01T11:28:52;4.78;;;0.20;;
45039;SDS011;30778;53.574;7.770;2023-02-01T11:31:22;2.35;;;0.10;;
45039;SDS011;30778;53.574;7.770;2023-02-01T11:33:51;7.13;;;0.20;;
45039;SDS011;30778;53.574;7.770;2023-02-01T11:36:21;7.07;;;0.50;;
45039;SDS011;30778;53.574;7.770;2023-02-01T11:39:07;3.27;;;0.53;;
45039;SDS011;30778;53.574;7.770;2023-02-01T11:42:20;2.53;;;0.20;;
45039;SDS011;30778;53.574;7.770;2023-02-01T11:44:37;4.63;;;0.28;;
45039;SDS011;30778;53.574;7.770;2023-02-01T11:50:00;4.32;;;0.93;;
45039;SDS011;30778;53.574;7.770;2023-02-01T12:01:28;6.60;;;0.10;;
45039;SDS011;30778;53.574;7.770;2023-02-01T12:06:56;4.05;;;0.13;;
45039;SDS011;30778;53.574;7.770;2023-02-01T12:09:46;1.15;;;0.10;;
45039;SDS011;30778;53.574;7.770;2023-02-01T12:14:56;5.93;;;0.28;;
45039;SDS011;30778;53.574;7.770;2023-02-01T12:17:51;0.32;;;0.10;;
45039;SDS011;30778;53.574;7.770;2023-02-01T12:20:28;3.85;;;0.38;;
45039;SDS011;30778;53.574;7.770;2023-02-01T12:23:24;5.43;;;0.10;;
45039;SDS011;30778;53.574;7.770;2023-02-01T12:31:45;3.10;;;0.10;;
45039;SDS011;30778;53.574;7.770;2023-02-01T12:34:34;1.13;;;0.17;;
45039;SDS011;30778;53.574;7.770;2023-02-01T12:39:46;4.13;;;0.43;;
45039;SDS011;30778;53.574;7.770;2023-02-01T12:44:50;4.70;;;1.00;;
45039;SDS011;30778;53.574;7.770;2023-02-01T12:50:18;8.05;;;1.48;;
45039;SDS011;30778;53.574;7.770;2023-02-01T12:52:50;12.32;;;1.73;;
45039;SDS011;30778;53.574;7.770;2023-02-01T12:55:20;6.30;;;0.50;;
45039;SDS011;30778;53.574;7.770;2023-02-01T12:57:52;12.82;;;0.43;;
45039;SDS011;30778;53.574;7.770;2023-02-01T13:05:41;14.93;;;2.03;;
45039;SDS011;30778;53.574;7.770;2023-02-01T13:08:16;16.35;;;1.77;;
45039;SDS011;30778;53.574;7.770;2023-02-01T13:10:51;16.67;;;1.20;;
45039;SDS011;30778;53.574;7.770;2023-02-01T13:13:28;16.58;;;1.35;;
45039;SDS011;30778;53.574;7.770;2023-02-01T13:16:14;10.57;;;0.80;;
45039;SDS011;30778;53.574;7.770;2023-02-01T13:18:41;10.02;;;1.00;;
45039;SDS011;30778;53.574;7.770;2023-02-01T13:21:12;23.35;;;2.40;;
45039;SDS011;30778;53.574;7.770;2023-02-01T13:23:43;25.85;;;2.17;;
45039;SDS011;30778;53.574;7.770;2023-02-01T13:26:12;18.63;;;3.13;;
45039;SDS011;30778;53.574;7.770;2023-02-01T13:28:45;22.63;;;2.80;;
45039;SDS011;30778;53.574;7.770;2023-02-01T13:42:05;16.65;;;2.28;;
45039;SDS011;30778;53.574;7.770;2023-02-01T13:44:55;13.88;;;1.42;;
45039;SDS011;30778;53.574;7.770;2023-02-01T13:49:52;7.80;;;1.23;;
45039;SDS011;30778;53.574;7.770;2023-02-01T13:57:40;17.02;;;1.92;;
45039;SDS011;30778;53.574;7.770;2023-02-01T14:00:25;18.40;;;2.50;;
45039;SDS011;30778;53.574;7.770;2023-02-01T14:13:23;14.98;;;1.80;;
45039;SDS011;30778;53.574;7.770;2023-02-01T14:37:02;12.15;;;1.25;;
45039;SDS011;30778;53.574;7.770;2023-02-01T14:39:32;18.33;;;2.78;;
45039;SDS011;30778;53.574;7.770;2023-02-01T14:44:44;15.65;;;1.85;;
45039;SDS011;30778;53.574;7.770;2023-02-01T14:49:37;12.50;;;1.80;;
45039;SDS011;30778;53.574;7.770;2023-02-01T14:52:18;16.20;;;2.85;;
45039;SDS011;30778;53.574;7.770;2023-02-01T14:54:49;20.02;;;2.33;;
45039;SDS011;30778;53.574;7.770;2023-02-01T14:57:20;18.02;;;2.03;;
45039;SDS011;30778;53.574;7.770;2023-02-01T14:59:53;15.10;;;1.98;;
45039;SDS011;30778;53.574;7.770;2023-02-01T15:02:25;11.90;;;2.28;;
45039;SDS011;30778;53.574;7.770;2023-02-01T15:04:53;20.80;;;1.95;;
45039;SDS011;30778;53.574;7.770;2023-02-01T15:07:21;10.68;;;1.58;;
45039;SDS011;30778;53.574;7.770;2023-02-01T15:09:49;16.27;;;3.72;;
45039;SDS011;30778;53.574;7.770;2023-02-01T15:12:17;19.98;;;3.22;;
45039;SDS011;30778;53.574;7.770;2023-02-01T15:17:40;20.42;;;3.05;;
45039;SDS011;30778;53.574;7.770;2023-02-01T15:22:42;19.60;;;2.53;;
45039;SDS011;30778;53.574;7.770;2023-02-01T15:25:18;15.73;;;1.55;;
45039;SDS011;30778;53.574;7.770;2023-02-01T15:27:45;21.38;;;2.25;;
45039;SDS011;30778;53.574;7.770;2023-02-01T15:30:21;16.50;;;1.92;;
45039;SDS011;30778;53.574;7.770;2023-02-01T15:32:50;20.67;;;2.05;;
45039;SDS011;30778;53.574;7.770;2023-02-01T15:35:31;21.08;;;2.28;;
45039;SDS011;30778;53.574;7.770;2023-02-01T15:38:20;17.95;;;2.03;;
45039;SDS011;30778;53.574;7.770;2023-02-01T15:43:36;17.58;;;2.35;;
45039;SDS011;30778;53.574;7.770;2023-02-01T15:46:29;23.95;;;2.28;;
45039;SDS011;30778;53.574;7.770;2023-02-01T15:49:04;18.88;;;3.42;;
45039;SDS011;30778;53.574;7.770;2023-02-01T15:51:43;8.80;;;1.33;;
45039;SDS011;30778;53.574;7.770;2023-02-01T15:54:17;9.05;;;1.55;;
45039;SDS011;30778;53.574;7.770;2023-02-01T15:56:51;17.90;;;2.25;;
45039;SDS011;30778;53.574;7.770;2023-02-01T15:59:24;18.58;;;1.23;;
45039;SDS011;30778;53.574;7.770;2023-02-01T16:01:55;10.55;;;1.52;;
45039;SDS011;30778;53.574;7.770;2023-02-01T16:04:25;15.45;;;1.70;;
45039;SDS011;30778;53.574;7.770;2023-02-01T16:06:56;19.48;;;1.77;;
45039;SDS011;30778;53.574;7.770;2023-02-01T16:09:36;21.15;;;1.13;;
45039;SDS011;30778;53.574;7.770;2023-02-01T16:12:17;19.63;;;1.83;;
45039;SDS011;30778;53.574;7.770;2023-02-01T16:14:51;15.85;;;1.88;;
45039;SDS011;30778;53.574;7.770;2023-02-01T16:17:17;8.02;;;1.45;;
45039;SDS011;30778;53.574;7.770;2023-02-01T16:19:43;10.45;;;1.77;;
45039;SDS011;30778;53.574;7.770;2023-02-01T16:22:08;15.25;;;1.13;;
45039;SDS011;30778;53.574;7.770;2023-02-01T16:24:34;15.63;;;1.02;;
45039;SDS011;30778;53.574;7.770;2023-02-01T16:27:00;17.65;;;1.67;;
45039;SDS011;30778;53.574;7.770;2023-02-01T16:29:25;9.70;;;1.60;;
45039;SDS011;30778;53.574;7.770;2023-02-01T16:31:51;14.32;;;1.20;;
45039;SDS011;30778;53.574;7.770;2023-02-01T16:34:17;15.02;;;1.38;;
45039;SDS011;30778;53.574;7.770;2023-02-01T16:36:43;16.67;;;1.13;;
45039;SDS011;30778;53.574;7.770;2023-02-01T16:39:16;11.23;;;1.23;;
45039;SDS011;30778;53.574;7.770;2023-02-01T16:41:42;21.35;;;2.47;;
45039;SDS011;30778;53.574;7.770;2023-02-01T16:44:10;10.48;;;1.95;;
45039;SDS011;30778;53.574;7.770;2023-02-01T16:46:38;24.90;;;2.47;;
45039;SDS011;30778;53.574;7.770;2023-02-01T16:49:05;21.50;;;2.10;;
45039;SDS011;30778;53.574;7.770;2023-02-01T16:51:43;20.45;;;1.90;;
45039;SDS011;30778;53.574;7.770;2023-02-01T16:54:09;22.92;;;1.77;;
45039;SDS011;30778;53.574;7.770;2023-02-01T16:56:35;19.40;;;2.45;;
45039;SDS011;30778;53.574;7.770;2023-02-01T16:59:02;29.98;;;3.55;;
45039;SDS011;30778;53.574;7.770;2023-02-01T17:01:28;25.52;;;2.95;;
45039;SDS011;30778;53.574;7.770;2023-02-01T17:03:53;15.60;;;1.75;;
45039;SDS011;30778;53.574;7.770;2023-02-01T17:06:20;18.30;;;2.92;;
45039;SDS011;30778;53.574;7.770;2023-02-01T17:08:52;18.45;;;1.58;;
45039;SDS011;30778;53.574;7.770;2023-02-01T17:11:19;31.55;;;3.50;;
45039;SDS011;30778;53.574;7.770;2023-02-01T17:13:45;31.35;;;1.98;;
45039;SDS011;30778;53.574;7.770;2023-02-01T17:18:43;29.75;;;3.25;;
45039;SDS011;30778;53.574;7.770;2023-02-01T17:21:12;14.07;;;1.63;;